Accueil
METAR-TAF:

METAR-TAF

Aéroports :

Šiauliai, Lituanie

latitude: 55-53-38N, longitude: 023-23-42E, altitude: 135 m

Observation

Le bulletin a été fait il y a 18 minutes, à 19:50 UTC
Vent 7 kt de ouest
Température 14°C
Humidité 77%
Pression 1019 hPa
Visibilité 10 km ou plus
pas de nuages en-dessous de 1500 mètres et pas de cumulonimbus.

METAR: EYSA 111950Z 27007KT CAVOK 14/10 Q1019 BLU NOSIG

Heure: 23:08 (20:08 UTC)

Prévision

Le bulletin a été fait il y a 3 heures et 8 minutes, à 17:00 UTC
Prévision valable du 11 à 18 UTC au 12 à 03 UTC
Vent 10 kt de ouest
Visibilité: 9000 m
Nuages fragmentés à une hauteur de 2000 ft

TAF: EYSA 111700Z 1118/1203 26010KT 9000 BKN020

Observations et prévisions météorologiques de plus de 4000 aéroports (messages METAR et TAF).

Les stations disponibles sont représentées par des disques jaunes et rouges sur la carte.

Passer la souris dessus pour voir le nom de la station.

Cliquer dessus pour voir les observations et prévisions météorologiques.

Pour changer de carte: cliquez sur les boutons verts avec une croix noire pour zoomer, sur le bouton vert avec un tiret pour effectuer un zoom arrière, ou sur les flèches vertes pour les cartes adjacentes.


METAR-TAF: